createdAt,value
2022-10-18T00:00:06.427Z,28.10
2022-10-18T00:02:33.119Z,30.60
2022-10-18T00:04:59.748Z,26.85
2022-10-18T00:07:26.384Z,25.30
2022-10-18T00:09:53.013Z,22.15
2022-10-18T00:12:19.640Z,31.35
2022-10-18T00:14:50.029Z,27.38
2022-10-18T00:17:16.956Z,34.88
2022-10-18T00:19:43.864Z,24.02
2022-10-18T00:22:10.461Z,22.00
2022-10-18T00:24:37.061Z,23.63
2022-10-18T00:27:03.711Z,20.83
2022-10-18T00:29:30.292Z,21.27
2022-10-18T00:31:56.907Z,24.80
2022-10-18T00:34:23.543Z,19.75
2022-10-18T00:36:50.168Z,20.85
2022-10-18T00:39:20.234Z,18.55
2022-10-18T00:41:47.783Z,20.90
2022-10-18T00:44:14.303Z,24.08
2022-10-18T00:46:44.316Z,24.27
2022-10-18T00:51:48.715Z,31.75
2022-10-18T00:54:17.229Z,32.60
2022-10-18T00:56:45.024Z,35.05
2022-10-18T00:59:15.269Z,31.40
2022-10-18T01:01:42.044Z,26.63
2022-10-18T01:04:08.868Z,29.42
2022-10-18T01:06:47.198Z,28.05
2022-10-18T01:09:32.348Z,24.15
2022-10-18T01:12:18.214Z,28.33
2022-10-18T01:14:50.761Z,32.53
2022-10-18T01:17:24.485Z,26.00
2022-10-18T01:20:13.673Z,28.67
2022-10-18T01:22:48.112Z,30.60
2022-10-18T01:25:30.554Z,30.40
2022-10-18T01:28:34.404Z,32.83
2022-10-18T01:31:10.729Z,26.80
2022-10-18T01:33:51.144Z,33.00
2022-10-18T01:36:36.169Z,29.15
2022-10-18T01:39:07.625Z,29.45
2022-10-18T01:41:38.670Z,29.00
2022-10-18T01:44:08.492Z,31.85
2022-10-18T01:46:37.376Z,26.63
2022-10-18T01:49:04.581Z,29.98
2022-10-18T01:51:33.108Z,33.47
2022-10-18T01:54:00.500Z,31.52
2022-10-18T01:56:42.697Z,29.52
2022-10-18T01:59:15.381Z,27.17
2022-10-18T02:02:00.540Z,34.55
2022-10-18T02:04:34.909Z,29.92
2022-10-18T02:07:26.834Z,25.50
2022-10-18T02:10:35.121Z,25.73
2022-10-18T02:13:02.795Z,30.58
2022-10-18T02:15:39.847Z,23.77
2022-10-18T02:18:11.291Z,27.08
2022-10-18T02:20:39.123Z,28.38
2022-10-18T02:23:08.381Z,26.88
2022-10-18T02:25:36.195Z,26.88
2022-10-18T02:28:04.357Z,25.95
2022-10-18T02:30:41.034Z,32.63
2022-10-18T02:33:20.302Z,37.05
2022-10-18T02:36:03.957Z,29.00
2022-10-18T02:38:32.384Z,34.75
2022-10-18T02:40:59.736Z,29.02
2022-10-18T02:43:26.933Z,31.65
2022-10-18T02:45:53.697Z,29.92
2022-10-18T02:48:20.367Z,31.75
2022-10-18T02:50:47.028Z,28.67
2022-10-18T02:53:13.610Z,33.20
2022-10-18T02:55:40.188Z,34.13
2022-10-18T02:58:06.857Z,31.52
2022-10-18T03:00:33.432Z,29.70
2022-10-18T03:03:00.052Z,40.53
2022-10-18T03:05:26.653Z,35.08
2022-10-18T03:07:53.284Z,30.77
2022-10-18T03:10:19.956Z,35.42
2022-10-18T03:12:46.599Z,39.05
2022-10-18T03:15:13.215Z,36.25
2022-10-18T03:17:39.792Z,37.08
2022-10-18T03:20:07.093Z,40.45
2022-10-18T03:22:33.710Z,41.15
2022-10-18T03:25:00.326Z,40.67
2022-10-18T03:27:27.008Z,35.63
2022-10-18T03:29:53.612Z,35.78
2022-10-18T03:32:20.201Z,39.60
2022-10-18T03:34:46.792Z,36.17
2022-10-18T03:37:13.428Z,38.33
2022-10-18T03:39:40.037Z,37.20
2022-10-18T03:42:06.627Z,36.88
2022-10-18T03:44:33.203Z,33.58
2022-10-18T03:46:59.852Z,35.47
2022-10-18T03:49:26.505Z,37.22
2022-10-18T03:51:53.152Z,37.83
2022-10-18T03:54:19.841Z,39.15
2022-10-18T03:56:46.508Z,46.60
2022-10-18T03:59:13.684Z,46.35
2022-10-18T04:01:40.355Z,47.90
2022-10-18T04:04:07.036Z,45.38
2022-10-18T04:06:33.657Z,40.78
2022-10-18T04:09:00.273Z,33.63
2022-10-18T04:11:26.906Z,32.47
2022-10-18T04:13:53.489Z,28.80
2022-10-18T04:16:20.134Z,23.90
2022-10-18T04:18:46.777Z,25.42
2022-10-18T04:21:13.401Z,31.15
2022-10-18T04:23:40.027Z,25.75
2022-10-18T04:26:07.601Z,26.35
2022-10-18T04:28:35.428Z,31.30
2022-10-18T04:31:02.186Z,25.48
2022-10-18T04:33:28.837Z,25.15
2022-10-18T04:35:55.420Z,34.97
2022-10-18T04:38:22.068Z,31.75
2022-10-18T04:40:48.747Z,27.15
2022-10-18T04:43:15.821Z,30.58
2022-10-18T04:45:45.460Z,29.98
2022-10-18T04:48:12.487Z,34.63
2022-10-18T04:50:39.122Z,32.05
2022-10-18T04:53:05.703Z,37.72
2022-10-18T04:55:32.356Z,37.20
2022-10-18T04:57:58.937Z,36.40
2022-10-18T05:00:25.761Z,37.80
2022-10-18T05:02:58.747Z,39.42
2022-10-18T05:05:33.139Z,34.75
2022-10-18T05:08:12.915Z,37.85
2022-10-18T05:10:39.657Z,35.88
2022-10-18T05:13:06.348Z,38.95
2022-10-18T05:15:32.965Z,40.15
2022-10-18T05:17:59.651Z,39.70
2022-10-18T05:20:26.562Z,39.85
2022-10-18T05:22:53.157Z,50.85
2022-10-18T05:25:19.791Z,56.78
2022-10-18T05:27:46.472Z,59.22
2022-10-18T05:30:13.213Z,48.80
2022-10-18T05:32:39.788Z,53.00
2022-10-18T05:35:06.988Z,57.65
2022-10-18T05:37:33.709Z,44.97
2022-10-18T05:40:00.326Z,38.80
2022-10-18T05:42:26.923Z,33.60
2022-10-18T05:44:53.549Z,35.80
2022-10-18T05:47:20.146Z,33.20
2022-10-18T05:49:47.797Z,34.97
2022-10-18T05:52:14.462Z,38.00
2022-10-18T05:54:41.060Z,51.67
2022-10-18T05:57:07.652Z,51.33
2022-10-18T05:59:34.316Z,65.22
2022-10-18T06:02:00.901Z,51.28
2022-10-18T06:04:27.473Z,48.45
2022-10-18T06:06:55.991Z,36.53
2022-10-18T06:09:22.740Z,32.60
2022-10-18T06:11:49.332Z,31.13
2022-10-18T06:14:15.936Z,39.60
2022-10-18T06:16:42.536Z,39.63
2022-10-18T06:19:09.124Z,35.50
2022-10-18T06:21:35.766Z,32.80
2022-10-18T06:24:02.384Z,34.88
2022-10-18T06:26:29.039Z,35.13
2022-10-18T06:28:55.899Z,26.58
2022-10-18T06:31:22.677Z,27.08
2022-10-18T06:33:49.661Z,27.33
2022-10-18T06:36:19.157Z,27.95
2022-10-18T06:38:45.888Z,29.77
2022-10-18T06:41:12.627Z,23.08
2022-10-18T06:43:39.814Z,21.65
2022-10-18T06:46:08.185Z,23.05
2022-10-18T06:48:39.162Z,29.30
2022-10-18T06:51:07.269Z,24.15
2022-10-18T06:53:43.796Z,21.70
2022-10-18T06:56:20.138Z,23.92
2022-10-18T06:58:46.817Z,32.10
2022-10-18T07:01:18.426Z,32.55
2022-10-18T07:03:47.196Z,22.80
2022-10-18T07:06:16.493Z,26.17
2022-10-18T07:08:43.744Z,25.17
2022-10-18T07:11:16.225Z,28.25
2022-10-18T07:13:43.107Z,26.88
2022-10-18T07:16:18.307Z,22.85
2022-10-18T07:18:50.474Z,19.38
2022-10-18T07:21:19.938Z,25.52
2022-10-18T07:23:47.520Z,22.30
2022-10-18T07:26:17.243Z,20.05
2022-10-18T07:28:45.860Z,20.45
2022-10-18T07:31:13.483Z,22.88
2022-10-18T07:33:40.391Z,36.05
2022-10-18T07:36:09.154Z,25.00
2022-10-18T07:38:36.524Z,27.70
2022-10-18T07:41:06.691Z,27.55
2022-10-18T07:43:34.330Z,19.70
2022-10-18T07:46:04.435Z,24.70
2022-10-18T07:48:31.297Z,20.10
2022-10-18T07:50:59.738Z,32.63
2022-10-18T07:53:26.836Z,26.48
2022-10-18T07:55:57.379Z,27.00
2022-10-18T07:58:23.971Z,27.27
2022-10-18T08:00:50.540Z,29.65
2022-10-18T08:03:17.268Z,24.38
2022-10-18T08:05:43.899Z,42.25
2022-10-18T08:08:10.525Z,21.95
2022-10-18T08:10:37.219Z,23.05
2022-10-18T08:13:03.813Z,25.08
2022-10-18T08:15:30.388Z,26.98
2022-10-18T08:17:56.994Z,29.73
2022-10-18T08:20:30.849Z,28.48
2022-10-18T08:23:00.302Z,24.20
2022-10-18T08:25:28.324Z,25.48
2022-10-18T08:27:55.061Z,24.23
2022-10-18T08:30:23.370Z,78.95
2022-10-18T08:32:49.988Z,43.83
2022-10-18T08:35:16.664Z,44.42
2022-10-18T08:37:45.322Z,36.85
2022-10-18T08:40:15.727Z,50.50
2022-10-18T08:43:22.629Z,28.50
2022-10-18T08:45:51.063Z,54.67
2022-10-18T08:48:31.068Z,40.95
2022-10-18T08:50:58.494Z,22.08
2022-10-18T08:53:36.254Z,21.70
2022-10-18T08:56:21.194Z,23.40
2022-10-18T08:58:47.907Z,26.08
2022-10-18T09:04:52.472Z,26.60
2022-10-18T09:07:55.846Z,17.05
2022-10-18T09:10:52.172Z,25.17
2022-10-18T09:13:24.855Z,16.92
2022-10-18T09:16:15.300Z,29.60
2022-10-18T09:18:47.813Z,13.57
2022-10-18T09:21:17.320Z,13.65
2022-10-18T09:23:48.397Z,14.90
2022-10-18T09:26:19.920Z,17.90
2022-10-18T09:29:14.832Z,28.88
2022-10-18T09:31:53.809Z,16.30
2022-10-18T09:34:53.943Z,11.80
2022-10-18T09:37:21.639Z,12.73
2022-10-18T09:39:50.674Z,15.07
2022-10-18T09:42:38.172Z,16.38
2022-10-18T09:45:32.030Z,13.80
2022-10-18T09:48:09.673Z,17.08
2022-10-18T09:50:58.585Z,17.35
2022-10-18T09:53:46.279Z,17.95
2022-10-18T09:56:26.322Z,16.85
2022-10-18T09:58:52.989Z,12.40
2022-10-18T10:01:27.683Z,17.75
2022-10-18T10:03:54.634Z,11.38
2022-10-18T10:06:28.702Z,16.40
2022-10-18T10:09:08.030Z,14.50
2022-10-18T10:11:36.527Z,18.27
2022-10-18T10:14:27.533Z,13.70
2022-10-18T10:16:57.025Z,15.05
2022-10-18T10:19:28.144Z,11.40
2022-10-18T10:22:10.591Z,12.90
2022-10-18T10:24:39.880Z,16.60
2022-10-18T10:27:15.472Z,16.73
2022-10-18T10:29:52.297Z,20.00
2022-10-18T10:32:21.396Z,15.75
2022-10-18T10:34:48.321Z,11.75
2022-10-18T10:37:28.753Z,12.18
2022-10-18T10:40:23.973Z,28.70
2022-10-18T10:43:33.145Z,17.33
2022-10-18T10:46:15.103Z,15.27
2022-10-18T10:49:27.854Z,20.55
2022-10-18T10:52:02.456Z,11.70
2022-10-18T10:54:39.032Z,12.68
2022-10-18T10:57:23.329Z,16.67
2022-10-18T10:59:52.651Z,11.57
2022-10-18T11:02:37.801Z,28.05
2022-10-18T11:05:29.464Z,14.13
2022-10-18T11:07:59.565Z,18.77
2022-10-18T11:10:30.813Z,19.58
2022-10-18T11:13:31.483Z,14.93
2022-10-18T11:16:10.235Z,13.68
2022-10-18T11:18:38.247Z,19.43
2022-10-18T11:21:12.824Z,14.23
2022-10-18T11:23:42.172Z,17.23
2022-10-18T11:26:11.660Z,24.67
2022-10-18T11:28:47.499Z,25.10
2022-10-18T11:31:41.638Z,15.07
2022-10-18T11:34:39.041Z,15.98
2022-10-18T11:37:38.394Z,11.80
2022-10-18T11:40:28.343Z,12.43
2022-10-18T11:45:48.778Z,13.43
2022-10-18T11:48:52.044Z,11.10
2022-10-18T11:51:56.388Z,11.00
2022-10-18T11:54:52.128Z,10.57
2022-10-18T11:57:42.739Z,12.30
2022-10-18T12:00:34.607Z,15.15
2022-10-18T12:03:37.695Z,19.17
2022-10-18T12:06:17.248Z,13.10
2022-10-18T12:08:59.597Z,12.82
2022-10-18T12:11:50.232Z,28.52
2022-10-18T12:14:27.364Z,15.85
2022-10-18T12:17:27.911Z,11.13
2022-10-18T12:19:47.022Z,16.15
2022-10-18T12:22:23.119Z,14.25
2022-10-18T12:24:49.727Z,13.55
2022-10-18T12:27:16.956Z,22.48
2022-10-18T12:29:58.113Z,16.88
2022-10-18T12:32:34.069Z,17.33
2022-10-18T12:35:15.344Z,12.65
2022-10-18T12:37:54.041Z,16.20
2022-10-18T12:40:26.151Z,19.37
2022-10-18T12:42:53.498Z,15.52
2022-10-18T12:45:25.189Z,12.57
2022-10-18T12:47:52.579Z,12.02
2022-10-18T12:50:40.533Z,14.18
2022-10-18T12:53:10.269Z,14.73
2022-10-18T12:58:16.043Z,16.35
2022-10-18T13:00:42.593Z,13.40
2022-10-18T13:03:09.146Z,17.70
2022-10-18T13:06:06.408Z,12.32
2022-10-18T13:08:42.249Z,13.10
2022-10-18T13:11:11.651Z,15.77
2022-10-18T13:14:02.232Z,9.23
2022-10-18T13:16:50.958Z,13.95
2022-10-18T13:20:20.560Z,14.03
2022-10-18T13:22:59.428Z,13.23
2022-10-18T13:25:34.598Z,10.23
2022-10-18T13:28:30.352Z,15.60
2022-10-18T13:31:19.592Z,8.95
2022-10-18T13:33:46.363Z,15.00
2022-10-18T13:36:22.879Z,29.85
2022-10-18T13:38:50.467Z,23.83
2022-10-18T13:41:18.596Z,12.77
2022-10-18T13:44:00.464Z,14.50
2022-10-18T13:46:33.192Z,18.02
2022-10-18T13:49:17.513Z,16.40
2022-10-18T13:52:14.534Z,13.60
2022-10-18T13:55:06.142Z,17.90
2022-10-18T13:57:57.076Z,19.10
2022-10-18T14:01:31.624Z,11.52
2022-10-18T14:04:24.176Z,16.08
2022-10-18T14:06:52.283Z,16.67
2022-10-18T14:09:40.450Z,11.90
2022-10-18T14:12:29.209Z,21.98
2022-10-18T14:15:17.198Z,12.20
2022-10-18T14:17:53.593Z,14.73
2022-10-18T14:20:49.133Z,11.93
2022-10-18T14:23:24.803Z,19.50
2022-10-18T14:25:51.654Z,15.85
2022-10-18T14:28:27.353Z,26.10
2022-10-18T14:31:12.777Z,20.00
2022-10-18T14:33:46.428Z,17.38
2022-10-18T14:36:26.566Z,16.73
2022-10-18T14:38:57.104Z,15.27
2022-10-18T14:41:29.041Z,20.77
2022-10-18T14:44:14.294Z,24.42
2022-10-18T14:46:52.877Z,17.83
2022-10-18T14:49:21.014Z,16.30
2022-10-18T14:51:51.629Z,29.80
2022-10-18T14:54:33.860Z,29.23
2022-10-18T14:57:02.261Z,14.65
2022-10-18T14:59:32.596Z,20.77
2022-10-18T15:02:03.203Z,25.33
2022-10-18T15:04:33.265Z,18.13
2022-10-18T15:07:07.833Z,54.53
2022-10-18T15:09:36.965Z,50.17
2022-10-18T15:12:05.936Z,42.00
2022-10-18T15:14:34.019Z,34.97
2022-10-18T15:17:07.515Z,33.45
2022-10-18T15:19:42.939Z,23.60
2022-10-18T15:25:05.683Z,33.65
2022-10-18T15:27:35.768Z,38.78
2022-10-18T15:30:34.533Z,30.70
2022-10-18T15:33:03.099Z,34.92
2022-10-18T15:35:35.712Z,23.33
2022-10-18T15:38:24.474Z,19.30
2022-10-18T15:40:51.136Z,25.87
2022-10-18T15:43:24.155Z,30.15
2022-10-18T15:46:05.345Z,30.77
2022-10-18T15:48:41.271Z,28.52
2022-10-18T15:51:18.906Z,32.53
2022-10-18T15:53:52.951Z,21.55
2022-10-18T15:56:35.935Z,24.15
2022-10-18T15:59:06.116Z,83.78
2022-10-18T16:01:42.380Z,124.15
2022-10-18T16:04:20.021Z,121.38
2022-10-18T16:06:46.703Z,74.43
2022-10-18T16:09:16.652Z,97.50
2022-10-18T16:11:43.409Z,88.80
2022-10-18T16:14:10.184Z,73.95
2022-10-18T16:16:36.975Z,91.82
2022-10-18T16:19:04.048Z,81.82
2022-10-18T16:21:31.876Z,96.50
2022-10-18T16:23:58.556Z,91.97
2022-10-18T16:26:26.101Z,123.97
2022-10-18T16:28:53.886Z,180.60
2022-10-18T16:31:23.012Z,189.82
2022-10-18T16:33:50.862Z,184.23
2022-10-18T16:36:31.451Z,214.15
2022-10-18T16:39:01.300Z,221.48
2022-10-18T16:43:54.586Z,183.68
2022-10-18T16:46:23.947Z,201.50
2022-10-18T16:48:51.370Z,188.20
2022-10-18T16:51:18.216Z,172.57
2022-10-18T16:53:45.199Z,158.73
2022-10-18T16:56:17.841Z,101.50
2022-10-18T16:58:45.481Z,121.70
2022-10-18T17:01:17.890Z,87.88
2022-10-18T17:03:45.072Z,118.57
2022-10-18T17:06:17.669Z,118.63
2022-10-18T17:08:45.121Z,126.70
2022-10-18T17:11:13.582Z,140.93
2022-10-18T17:13:40.944Z,127.10
2022-10-18T17:16:18.360Z,130.75
2022-10-18T17:18:45.012Z,116.72
2022-10-18T17:21:11.612Z,102.85
2022-10-18T17:23:38.981Z,82.47
2022-10-18T17:26:26.165Z,90.30
2022-10-18T17:28:59.049Z,87.70
2022-10-18T17:31:25.763Z,79.72
2022-10-18T17:33:54.659Z,68.22
2022-10-18T17:36:22.061Z,69.13
2022-10-18T17:38:53.027Z,80.90
2022-10-18T17:41:20.348Z,71.18
2022-10-18T17:43:48.293Z,55.60
2022-10-18T17:46:16.236Z,50.75
2022-10-18T17:48:42.899Z,47.85
2022-10-18T17:51:11.880Z,56.40
2022-10-18T17:53:39.076Z,47.57
2022-10-18T17:56:07.359Z,65.32
2022-10-18T17:58:34.643Z,68.55
2022-10-18T18:01:15.958Z,102.07
2022-10-18T18:03:43.458Z,53.25
2022-10-18T18:06:20.608Z,62.20
2022-10-18T18:08:48.593Z,70.75
2022-10-18T18:11:16.172Z,61.72
2022-10-18T18:13:43.054Z,63.42
2022-10-18T18:16:16.056Z,61.22
2022-10-18T18:18:43.903Z,42.45
2022-10-18T18:21:11.038Z,57.38
2022-10-18T18:23:37.925Z,56.15
2022-10-18T18:26:04.931Z,52.55
2022-10-18T18:28:31.546Z,50.30
2022-10-18T18:30:58.171Z,56.92
2022-10-18T18:33:24.818Z,38.75
2022-10-18T18:35:58.618Z,61.65
2022-10-18T18:38:26.121Z,66.68
2022-10-18T18:41:04.197Z,73.63
2022-10-18T18:43:30.935Z,46.85
2022-10-18T18:45:57.569Z,50.65
2022-10-18T18:48:24.553Z,73.65
2022-10-18T18:50:52.323Z,66.18
2022-10-18T18:53:19.184Z,68.35
2022-10-18T18:55:46.155Z,57.30
2022-10-18T18:58:12.894Z,50.00
2022-10-18T19:00:43.607Z,39.90
2022-10-18T19:03:11.532Z,57.33
2022-10-18T19:05:38.228Z,51.22
2022-10-18T19:08:05.929Z,46.95
2022-10-18T19:10:32.890Z,70.28
2022-10-18T19:12:59.581Z,49.28
2022-10-18T19:15:26.265Z,51.65
2022-10-18T19:17:52.850Z,49.92
2022-10-18T19:20:19.635Z,40.85
2022-10-18T19:22:46.280Z,36.13
2022-10-18T19:25:13.212Z,59.78
2022-10-18T19:27:40.059Z,48.83
2022-10-18T19:30:09.612Z,40.30
2022-10-18T19:32:36.329Z,44.80
2022-10-18T19:35:03.518Z,50.55
2022-10-18T19:37:30.377Z,34.70
2022-10-18T19:39:58.545Z,46.45
2022-10-18T19:42:30.341Z,47.20
2022-10-18T19:44:57.966Z,56.67
2022-10-18T19:47:24.555Z,64.82
2022-10-18T19:49:52.782Z,63.05
2022-10-18T19:52:19.390Z,61.00
2022-10-18T19:54:48.723Z,55.10
2022-10-18T19:57:15.449Z,51.75
2022-10-18T19:59:42.046Z,45.17
2022-10-18T20:02:14.106Z,44.90
2022-10-18T20:04:40.964Z,45.97
2022-10-18T20:07:07.554Z,62.00
2022-10-18T20:09:34.412Z,57.95
2022-10-18T20:12:01.147Z,49.42
2022-10-18T20:14:27.892Z,66.00
2022-10-18T20:16:55.004Z,67.15
2022-10-18T20:19:21.852Z,60.80
2022-10-18T20:21:48.501Z,51.28
2022-10-18T20:24:15.118Z,53.58
2022-10-18T20:26:43.552Z,47.40
2022-10-18T20:29:10.442Z,40.90
2022-10-18T20:31:39.063Z,40.50
2022-10-18T20:34:08.951Z,40.80
2022-10-18T20:36:35.608Z,40.63
2022-10-18T20:39:04.363Z,39.25
2022-10-18T20:41:36.478Z,50.22
2022-10-18T20:44:07.090Z,26.75
2022-10-18T20:46:36.654Z,22.38
2022-10-18T20:49:04.530Z,44.90
2022-10-18T20:51:33.450Z,48.03
2022-10-18T20:56:34.330Z,28.75
2022-10-18T20:59:01.772Z,28.03
2022-10-18T21:01:33.452Z,26.80
2022-10-18T21:04:01.993Z,35.30
2022-10-18T21:06:42.862Z,42.75
2022-10-18T21:09:15.847Z,38.08
2022-10-18T21:11:45.022Z,40.55
2022-10-18T21:14:17.641Z,55.55
2022-10-18T21:16:45.408Z,51.63
2022-10-18T21:19:13.582Z,41.95
2022-10-18T21:21:42.333Z,42.70
2022-10-18T21:24:08.991Z,38.05
2022-10-18T21:26:36.500Z,36.72
2022-10-18T21:29:04.907Z,43.25
2022-10-18T21:31:34.942Z,39.22
2022-10-18T21:36:35.193Z,38.40
2022-10-18T21:39:07.728Z,38.95
2022-10-18T21:41:34.779Z,38.35
2022-10-18T21:44:04.507Z,36.42
2022-10-18T21:46:33.536Z,41.10
2022-10-18T21:49:00.176Z,30.05
2022-10-18T21:51:28.120Z,40.15
2022-10-18T21:53:56.960Z,31.10
2022-10-18T21:56:29.507Z,22.38
2022-10-18T21:58:57.229Z,25.08
2022-10-18T22:01:25.093Z,27.80
2022-10-18T22:03:53.631Z,31.13
2022-10-18T22:06:21.438Z,28.58
2022-10-18T22:08:56.121Z,28.33
2022-10-18T22:11:34.347Z,21.58
2022-10-18T22:14:01.055Z,20.75
2022-10-18T22:16:28.132Z,19.35
2022-10-18T22:18:58.384Z,19.45
2022-10-18T22:21:25.109Z,25.52
2022-10-18T22:23:54.099Z,30.90
2022-10-18T22:26:26.528Z,23.38
2022-10-18T22:28:58.669Z,21.98
2022-10-18T22:31:28.348Z,23.17
2022-10-18T22:33:57.393Z,19.85
2022-10-18T22:36:24.704Z,25.30
2022-10-18T22:38:51.509Z,22.70
2022-10-18T22:41:18.622Z,21.08
2022-10-18T22:43:47.624Z,24.55
2022-10-18T22:46:15.525Z,33.15
2022-10-18T22:48:43.363Z,21.42
2022-10-18T22:51:10.576Z,22.85
2022-10-18T22:53:39.002Z,27.15
2022-10-18T22:56:06.005Z,24.40
2022-10-18T22:58:33.045Z,24.75
2022-10-18T23:01:11.035Z,21.77
2022-10-18T23:03:38.329Z,32.85
2022-10-18T23:06:06.348Z,29.40
2022-10-18T23:08:33.261Z,20.05
2022-10-18T23:11:00.401Z,27.10
2022-10-18T23:13:27.773Z,35.58
2022-10-18T23:16:04.301Z,20.45
2022-10-18T23:18:32.962Z,25.10
2022-10-18T23:21:04.583Z,16.88
2022-10-18T23:23:35.430Z,23.67
2022-10-18T23:26:04.480Z,20.38
2022-10-18T23:28:34.748Z,19.25
2022-10-18T23:31:19.295Z,20.15
2022-10-18T23:33:51.346Z,33.70
2022-10-18T23:36:18.294Z,23.70
2022-10-18T23:38:45.518Z,24.77
2022-10-18T23:41:14.007Z,35.00
2022-10-18T23:43:41.518Z,25.02
2022-10-18T23:46:09.126Z,28.23
2022-10-18T23:48:36.137Z,22.35
2022-10-18T23:51:03.522Z,24.55
2022-10-18T23:53:30.757Z,22.35
2022-10-18T23:56:02.465Z,30.58
2022-10-18T23:58:30.916Z,23.77
